N39YL KVNY-KSAN
Flight info
| Callsign | N39YL |
|---|---|
| Flight time | N/A |
| Altitude | 13000 |
| Route | DARTS V597 HURSI |
| Aircraft | BE9L/L-VGDW/C |
Departure
| Time | 2026-05-04 01:17 |
|---|---|
| Airport | Van Nuys Airport (KVNY) |
Arrival
| Time | N/A |
|---|---|
| Airport | San Diego International Airport (KSAN) |
| Time | Latitude | Longitude | Altitude | Speed | Heading |
|---|---|---|---|---|---|
| 2026-05-04 00:51 | 34.21845 | -118.49513 | 804 ft | 0 kts | 175° |
| 2026-05-04 01:14 | 34.21843 | -118.49513 | 804 ft | 2 kts | 175° |
| 2026-05-04 01:14 | 34.21791 | -118.49508 | 804 ft | 11 kts | 176° |
| 2026-05-04 01:14 | 34.21736 | -118.49419 | 804 ft | 18 kts | 99° |
| 2026-05-04 01:14 | 34.21721 | -118.49256 | 804 ft | 20 kts | 79° |
| 2026-05-04 01:15 | 34.21845 | -118.49234 | 804 ft | 16 kts | 13° |
| 2026-05-04 01:15 | 34.21867 | -118.49217 | 804 ft | 0 kts | 50° |
| 2026-05-04 01:15 | 34.21868 | -118.49216 | 804 ft | 1 kts | 50° |
| 2026-05-04 01:16 | 34.21882 | -118.49158 | 804 ft | 12 kts | 96° |
| 2026-05-04 01:16 | 34.21817 | -118.49116 | 804 ft | 4 kts | 176° |
| 2026-05-04 01:16 | 34.21814 | -118.49116 | 804 ft | 0 kts | 175° |
| 2026-05-04 01:16 | 34.21800 | -118.49115 | 804 ft | 17 kts | 176° |
| 2026-05-04 01:17 | 34.21371 | -118.49072 | 805 ft | 96 kts | 175° |
| 2026-05-04 01:17 | 34.20636 | -118.48990 | 1063 ft | 114 kts | 172° |
| 2026-05-04 01:17 | 34.19768 | -118.48901 | 1318 ft | 136 kts | 176° |
| 2026-05-04 01:17 | 34.18784 | -118.48658 | 1578 ft | 153 kts | 155° |
| 2026-05-04 01:18 | 34.18083 | -118.47667 | 1838 ft | 167 kts | 110° |
| 2026-05-04 01:18 | 34.18117 | -118.46234 | 2097 ft | 178 kts | 83° |
| 2026-05-04 01:18 | 34.18329 | -118.44753 | 2348 ft | 183 kts | 83° |
| 2026-05-04 01:18 | 34.18552 | -118.43226 | 2601 ft | 186 kts | 83° |
| 2026-05-04 01:19 | 34.18777 | -118.41685 | 2851 ft | 187 kts | 83° |
| 2026-05-04 01:19 | 34.18974 | -118.40130 | 3097 ft | 187 kts | 91° |
| 2026-05-04 01:19 | 34.18810 | -118.38583 | 3350 ft | 185 kts | 105° |
| 2026-05-04 01:19 | 34.18464 | -118.37087 | 3600 ft | 184 kts | 110° |
| 2026-05-04 01:20 | 34.18062 | -118.35626 | 3849 ft | 184 kts | 111° |
| 2026-05-04 01:20 | 34.17639 | -118.34173 | 4099 ft | 183 kts | 112° |
| 2026-05-04 01:20 | 34.17213 | -118.32735 | 4347 ft | 182 kts | 112° |
| 2026-05-04 01:20 | 34.16781 | -118.31287 | 4598 ft | 181 kts | 112° |
| 2026-05-04 01:21 | 34.16354 | -118.29858 | 4847 ft | 181 kts | 112° |
| 2026-05-04 01:21 | 34.15933 | -118.28450 | 5045 ft | 183 kts | 111° |
| 2026-05-04 01:21 | 34.15483 | -118.26949 | 5013 ft | 194 kts | 111° |
| 2026-05-04 01:21 | 34.15014 | -118.25383 | 5009 ft | 200 kts | 111° |
| 2026-05-04 01:22 | 34.14535 | -118.23785 | 5007 ft | 203 kts | 111° |
| 2026-05-04 01:22 | 34.14051 | -118.22170 | 5006 ft | 205 kts | 110° |
| 2026-05-04 01:22 | 34.13565 | -118.20549 | 5005 ft | 207 kts | 110° |
| 2026-05-04 01:22 | 34.13074 | -118.18906 | 5027 ft | 206 kts | 110° |
| 2026-05-04 01:23 | 34.12584 | -118.17272 | 5012 ft | 208 kts | 109° |
| 2026-05-04 01:23 | 34.12090 | -118.15621 | 5010 ft | 209 kts | 109° |
| 2026-05-04 01:23 | 34.11595 | -118.13966 | 5009 ft | 210 kts | 109° |
| 2026-05-04 01:23 | 34.11102 | -118.12321 | 5009 ft | 210 kts | 108° |
| 2026-05-04 01:24 | 34.10604 | -118.10656 | 5008 ft | 211 kts | 108° |
| 2026-05-04 01:24 | 34.10098 | -118.08965 | 5007 ft | 212 kts | 108° |
| 2026-05-04 01:24 | 34.09597 | -118.07315 | 5007 ft | 213 kts | 108° |
| 2026-05-04 01:24 | 34.09079 | -118.05624 | 5006 ft | 214 kts | 108° |
| 2026-05-04 01:25 | 34.08561 | -118.03934 | 5006 ft | 216 kts | 108° |
| 2026-05-04 01:25 | 34.08036 | -118.02224 | 5006 ft | 217 kts | 108° |
| 2026-05-04 01:25 | 34.07512 | -118.00517 | 5006 ft | 218 kts | 107° |
| 2026-05-04 01:25 | 34.06979 | -117.98782 | 5006 ft | 219 kts | 107° |
| 2026-05-04 01:26 | 34.06449 | -117.97060 | 5006 ft | 220 kts | 107° |
| 2026-05-04 01:26 | 34.05914 | -117.95324 | 5006 ft | 220 kts | 107° |
| 2026-05-04 01:26 | 34.05381 | -117.93593 | 5006 ft | 221 kts | 107° |
| 2026-05-04 01:26 | 34.04845 | -117.91855 | 5006 ft | 222 kts | 107° |
| 2026-05-04 01:27 | 34.04307 | -117.90109 | 5006 ft | 223 kts | 107° |
| 2026-05-04 01:27 | 34.03762 | -117.88342 | 5006 ft | 223 kts | 107° |
| 2026-05-04 01:27 | 34.03218 | -117.86582 | 5006 ft | 224 kts | 107° |
| 2026-05-04 01:27 | 34.02681 | -117.84841 | 5006 ft | 224 kts | 107° |
| 2026-05-04 01:28 | 34.02135 | -117.83076 | 5007 ft | 225 kts | 107° |
| 2026-05-04 01:28 | 34.01285 | -117.81493 | 5000 ft | 231 kts | 140° |
| 2026-05-04 01:28 | 33.99893 | -117.80512 | 5008 ft | 231 kts | 149° |
| 2026-05-04 01:28 | 33.98472 | -117.79567 | 5007 ft | 231 kts | 149° |
| 2026-05-04 01:29 | 33.97076 | -117.78642 | 5006 ft | 231 kts | 149° |